sensor_id;sensor_type;location;lat;lon;timestamp;temperature;humidity
46438;DHT22;32137;48.728;9.142;2023-03-31T00:00:18;10.80;99.90
46438;DHT22;32137;48.728;9.142;2023-03-31T00:02:44;10.80;99.90
46438;DHT22;32137;48.728;9.142;2023-03-31T00:05:10;10.80;99.90
46438;DHT22;32137;48.728;9.142;2023-03-31T00:07:36;10.80;99.90
46438;DHT22;32137;48.728;9.142;2023-03-31T00:10:04;10.80;99.90
46438;DHT22;32137;48.728;9.142;2023-03-31T00:12:30;10.80;99.90
46438;DHT22;32137;48.728;9.142;2023-03-31T00:14:55;10.80;99.90
46438;DHT22;32137;48.728;9.142;2023-03-31T00:17:21;10.80;99.90
46438;DHT22;32137;48.728;9.142;2023-03-31T00:19:47;10.80;99.90
46438;DHT22;32137;48.728;9.142;2023-03-31T00:22:16;10.80;99.90
46438;DHT22;32137;48.728;9.142;2023-03-31T00:24:46;10.80;99.90
46438;DHT22;32137;48.728;9.142;2023-03-31T00:27:12;10.80;99.90
46438;DHT22;32137;48.728;9.142;2023-03-31T00:29:38;10.80;99.90
46438;DHT22;32137;48.728;9.142;2023-03-31T00:32:07;10.80;99.90
46438;DHT22;32137;48.728;9.142;2023-03-31T00:34:33;10.80;99.90
46438;DHT22;32137;48.728;9.142;2023-03-31T00:37:02;10.80;99.90
46438;DHT22;32137;48.728;9.142;2023-03-31T00:39:28;10.80;99.90
46438;DHT22;32137;48.728;9.142;2023-03-31T00:42:03;10.80;99.90
46438;DHT22;32137;48.728;9.142;2023-03-31T00:44:29;10.80;99.90
46438;DHT22;32137;48.728;9.142;2023-03-31T00:47:01;10.80;99.90
46438;DHT22;32137;48.728;9.142;2023-03-31T00:49:37;10.70;99.90
46438;DHT22;32137;48.728;9.142;2023-03-31T00:52:23;10.80;99.90
46438;DHT22;32137;48.728;9.142;2023-03-31T00:54:53;10.80;99.90
46438;DHT22;32137;48.728;9.142;2023-03-31T00:57:20;10.80;99.90
46438;DHT22;32137;48.728;9.142;2023-03-31T00:59:49;10.80;99.90
46438;DHT22;32137;48.728;9.142;2023-03-31T01:02:16;10.70;99.90
46438;DHT22;32137;48.728;9.142;2023-03-31T01:04:48;10.70;99.90
46438;DHT22;32137;48.728;9.142;2023-03-31T01:09:47;10.80;99.90
46438;DHT22;32137;48.728;9.142;2023-03-31T01:12:16;10.70;99.90
46438;DHT22;32137;48.728;9.142;2023-03-31T01:14:42;10.70;99.90
46438;DHT22;32137;48.728;9.142;2023-03-31T01:17:08;10.70;99.90
46438;DHT22;32137;48.728;9.142;2023-03-31T01:20:02;10.70;99.90
46438;DHT22;32137;48.728;9.142;2023-03-31T01:22:55;10.80;99.90
46438;DHT22;32137;48.728;9.142;2023-03-31T01:25:39;10.80;99.90
46438;DHT22;32137;48.728;9.142;2023-03-31T01:32:02;10.80;99.90
46438;DHT22;32137;48.728;9.142;2023-03-31T01:37:28;10.80;99.90
46438;DHT22;32137;48.728;9.142;2023-03-31T01:42:58;10.80;99.90
46438;DHT22;32137;48.728;9.142;2023-03-31T01:48:25;10.80;99.90
46438;DHT22;32137;48.728;9.142;2023-03-31T01:56:54;10.00;99.90
46438;DHT22;32137;48.728;9.142;2023-03-31T01:59:36;9.70;99.90
46438;DHT22;32137;48.728;9.142;2023-03-31T02:04:32;9.50;99.90
46438;DHT22;32137;48.728;9.142;2023-03-31T02:07:21;9.60;99.90
46438;DHT22;32137;48.728;9.142;2023-03-31T02:09:54;9.50;99.90
46438;DHT22;32137;48.728;9.142;2023-03-31T02:12:25;9.50;99.90
46438;DHT22;32137;48.728;9.142;2023-03-31T02:14:52;9.60;99.90
46438;DHT22;32137;48.728;9.142;2023-03-31T02:17:22;9.50;99.90
46438;DHT22;32137;48.728;9.142;2023-03-31T02:19:57;9.50;1.00
46438;DHT22;32137;48.728;9.142;2023-03-31T02:22:25;9.50;25.20
46438;DHT22;32137;48.728;9.142;2023-03-31T02:24:52;9.50;99.90
46438;DHT22;32137;48.728;9.142;2023-03-31T02:27:27;9.50;99.90
46438;DHT22;32137;48.728;9.142;2023-03-31T02:29:55;9.40;99.90
46438;DHT22;32137;48.728;9.142;2023-03-31T02:32:31;9.40;99.90
46438;DHT22;32137;48.728;9.142;2023-03-31T02:34:58;9.40;99.90
46438;DHT22;32137;48.728;9.142;2023-03-31T02:37:27;9.40;99.90
46438;DHT22;32137;48.728;9.142;2023-03-31T02:39:55;9.40;99.90
46438;DHT22;32137;48.728;9.142;2023-03-31T02:42:21;9.40;99.90
46438;DHT22;32137;48.728;9.142;2023-03-31T02:44:47;9.40;99.90
46438;DHT22;32137;48.728;9.142;2023-03-31T02:47:14;9.50;99.90
46438;DHT22;32137;48.728;9.142;2023-03-31T02:49:46;9.50;99.90
46438;DHT22;32137;48.728;9.142;2023-03-31T02:57:56;9.50;1.00
46438;DHT22;32137;48.728;9.142;2023-03-31T03:11:06;9.40;99.90
46438;DHT22;32137;48.728;9.142;2023-03-31T03:16:17;9.40;99.90
46438;DHT22;32137;48.728;9.142;2023-03-31T03:19:05;9.40;99.90
46438;DHT22;32137;48.728;9.142;2023-03-31T03:21:31;9.30;99.90
46438;DHT22;32137;48.728;9.142;2023-03-31T03:23:57;9.30;99.90
46438;DHT22;32137;48.728;9.142;2023-03-31T03:26:24;9.30;99.90
46438;DHT22;32137;48.728;9.142;2023-03-31T03:28:53;9.20;99.90
46438;DHT22;32137;48.728;9.142;2023-03-31T03:31:19;9.20;99.90
46438;DHT22;32137;48.728;9.142;2023-03-31T03:33:45;9.20;99.90
46438;DHT22;32137;48.728;9.142;2023-03-31T03:36:11;9.20;99.90
46438;DHT22;32137;48.728;9.142;2023-03-31T03:38:37;9.20;99.90
46438;DHT22;32137;48.728;9.142;2023-03-31T03:41:03;9.20;99.90
46438;DHT22;32137;48.728;9.142;2023-03-31T03:43:28;9.10;99.90
46438;DHT22;32137;48.728;9.142;2023-03-31T03:45:54;9.20;99.90
46438;DHT22;32137;48.728;9.142;2023-03-31T03:48:20;9.10;99.90
46438;DHT22;32137;48.728;9.142;2023-03-31T03:50:45;9.10;99.90
46438;DHT22;32137;48.728;9.142;2023-03-31T03:53:12;9.10;99.90
46438;DHT22;32137;48.728;9.142;2023-03-31T03:55:37;9.20;99.90
46438;DHT22;32137;48.728;9.142;2023-03-31T03:58:03;9.10;99.90
46438;DHT22;32137;48.728;9.142;2023-03-31T04:00:29;9.10;99.90
46438;DHT22;32137;48.728;9.142;2023-03-31T04:02:55;9.00;99.90
46438;DHT22;32137;48.728;9.142;2023-03-31T04:05:21;8.90;99.90
46438;DHT22;32137;48.728;9.142;2023-03-31T04:07:46;8.90;99.90
46438;DHT22;32137;48.728;9.142;2023-03-31T04:10:12;8.80;99.90
46438;DHT22;32137;48.728;9.142;2023-03-31T04:12:38;8.80;99.90
46438;DHT22;32137;48.728;9.142;2023-03-31T04:15:04;8.70;99.90
46438;DHT22;32137;48.728;9.142;2023-03-31T04:17:30;8.70;99.90
46438;DHT22;32137;48.728;9.142;2023-03-31T04:20:00;8.70;99.90
46438;DHT22;32137;48.728;9.142;2023-03-31T04:22:29;8.70;99.90
46438;DHT22;32137;48.728;9.142;2023-03-31T04:25:01;8.70;99.90
46438;DHT22;32137;48.728;9.142;2023-03-31T04:27:27;8.70;99.90
46438;DHT22;32137;48.728;9.142;2023-03-31T04:29:52;8.80;99.90
46438;DHT22;32137;48.728;9.142;2023-03-31T04:32:21;8.80;99.90
46438;DHT22;32137;48.728;9.142;2023-03-31T04:34:47;8.80;99.90
46438;DHT22;32137;48.728;9.142;2023-03-31T04:37:15;8.80;99.90
46438;DHT22;32137;48.728;9.142;2023-03-31T04:39:41;8.90;99.90
46438;DHT22;32137;48.728;9.142;2023-03-31T04:42:07;8.90;99.90
46438;DHT22;32137;48.728;9.142;2023-03-31T04:44:32;8.90;99.90
46438;DHT22;32137;48.728;9.142;2023-03-31T04:46:58;8.90;99.90
46438;DHT22;32137;48.728;9.142;2023-03-31T04:49:27;8.90;99.90
46438;DHT22;32137;48.728;9.142;2023-03-31T04:51:52;9.00;99.90
46438;DHT22;32137;48.728;9.142;2023-03-31T04:54:18;9.00;99.90
46438;DHT22;32137;48.728;9.142;2023-03-31T04:56:44;9.00;99.90
46438;DHT22;32137;48.728;9.142;2023-03-31T04:59:09;9.00;99.90
46438;DHT22;32137;48.728;9.142;2023-03-31T05:01:35;9.00;99.90
46438;DHT22;32137;48.728;9.142;2023-03-31T05:04:05;9.00;99.90
46438;DHT22;32137;48.728;9.142;2023-03-31T05:06:30;9.00;98.40
46438;DHT22;32137;48.728;9.142;2023-03-31T05:08:56;9.00;99.90
46438;DHT22;32137;48.728;9.142;2023-03-31T05:11:21;9.00;99.90
46438;DHT22;32137;48.728;9.142;2023-03-31T05:13:47;9.00;99.90
46438;DHT22;32137;48.728;9.142;2023-03-31T05:16:13;9.00;99.90
46438;DHT22;32137;48.728;9.142;2023-03-31T05:18:40;9.00;99.90
46438;DHT22;32137;48.728;9.142;2023-03-31T05:21:16;8.90;99.90
46438;DHT22;32137;48.728;9.142;2023-03-31T05:23:42;8.90;1.00
46438;DHT22;32137;48.728;9.142;2023-03-31T05:26:09;8.80;18.60
46438;DHT22;32137;48.728;9.142;2023-03-31T05:28:35;8.80;99.90
46438;DHT22;32137;48.728;9.142;2023-03-31T05:31:01;8.80;99.90
46438;DHT22;32137;48.728;9.142;2023-03-31T05:33:28;8.80;99.90
46438;DHT22;32137;48.728;9.142;2023-03-31T05:35:54;8.80;1.00
46438;DHT22;32137;48.728;9.142;2023-03-31T05:38:20;8.80;1.00
46438;DHT22;32137;48.728;9.142;2023-03-31T05:40:46;8.80;1.00
46438;DHT22;32137;48.728;9.142;2023-03-31T05:43:12;8.80;1.00
46438;DHT22;32137;48.728;9.142;2023-03-31T05:45:37;8.80;38.20
46438;DHT22;32137;48.728;9.142;2023-03-31T05:48:03;8.80;99.90
46438;DHT22;32137;48.728;9.142;2023-03-31T05:50:29;8.90;99.90
46438;DHT22;32137;48.728;9.142;2023-03-31T05:52:55;8.90;99.90
46438;DHT22;32137;48.728;9.142;2023-03-31T05:55:20;8.90;99.90
46438;DHT22;32137;48.728;9.142;2023-03-31T05:57:46;8.90;99.90
46438;DHT22;32137;48.728;9.142;2023-03-31T06:00:12;8.90;99.90
46438;DHT22;32137;48.728;9.142;2023-03-31T06:02:38;8.90;1.00
46438;DHT22;32137;48.728;9.142;2023-03-31T06:05:05;8.80;1.00
46438;DHT22;32137;48.728;9.142;2023-03-31T06:07:31;8.90;1.00
46438;DHT22;32137;48.728;9.142;2023-03-31T06:09:56;8.90;1.00
46438;DHT22;32137;48.728;9.142;2023-03-31T06:12:22;8.90;1.00
46438;DHT22;32137;48.728;9.142;2023-03-31T06:14:47;8.80;1.00
46438;DHT22;32137;48.728;9.142;2023-03-31T06:17:13;8.80;1.00
46438;DHT22;32137;48.728;9.142;2023-03-31T06:19:38;8.90;1.00
46438;DHT22;32137;48.728;9.142;2023-03-31T06:22:04;8.90;1.00
46438;DHT22;32137;48.728;9.142;2023-03-31T06:24:30;9.00;1.00
46438;DHT22;32137;48.728;9.142;2023-03-31T06:26:55;8.90;1.00
46438;DHT22;32137;48.728;9.142;2023-03-31T06:29:21;8.90;1.00
46438;DHT22;32137;48.728;9.142;2023-03-31T06:31:46;8.90;1.00
46438;DHT22;32137;48.728;9.142;2023-03-31T06:34:12;8.90;1.00
46438;DHT22;32137;48.728;9.142;2023-03-31T06:36:37;8.90;1.00
46438;DHT22;32137;48.728;9.142;2023-03-31T06:39:03;8.90;1.00
46438;DHT22;32137;48.728;9.142;2023-03-31T06:41:28;8.90;1.00
46438;DHT22;32137;48.728;9.142;2023-03-31T06:43:54;9.00;1.00
46438;DHT22;32137;48.728;9.142;2023-03-31T06:46:19;8.90;99.90
46438;DHT22;32137;48.728;9.142;2023-03-31T06:48:45;9.00;99.90
46438;DHT22;32137;48.728;9.142;2023-03-31T06:51:10;9.00;99.90
46438;DHT22;32137;48.728;9.142;2023-03-31T06:53:37;9.00;99.90
46438;DHT22;32137;48.728;9.142;2023-03-31T06:56:03;9.00;99.90
46438;DHT22;32137;48.728;9.142;2023-03-31T06:58:28;8.90;99.90
46438;DHT22;32137;48.728;9.142;2023-03-31T07:00:54;8.90;99.90
46438;DHT22;32137;48.728;9.142;2023-03-31T07:03:19;9.00;99.90
46438;DHT22;32137;48.728;9.142;2023-03-31T07:05:49;9.20;99.90
46438;DHT22;32137;48.728;9.142;2023-03-31T07:08:15;9.20;99.90
46438;DHT22;32137;48.728;9.142;2023-03-31T07:10:42;9.50;99.90
46438;DHT22;32137;48.728;9.142;2023-03-31T07:13:08;9.80;99.90
46438;DHT22;32137;48.728;9.142;2023-03-31T07:15:33;9.40;99.90
46438;DHT22;32137;48.728;9.142;2023-03-31T07:17:59;9.30;99.90
46438;DHT22;32137;48.728;9.142;2023-03-31T07:20:26;9.30;99.90
46438;DHT22;32137;48.728;9.142;2023-03-31T07:22:52;9.60;99.90
46438;DHT22;32137;48.728;9.142;2023-03-31T07:25:17;10.00;99.90
46438;DHT22;32137;48.728;9.142;2023-03-31T07:27:43;9.90;99.90
46438;DHT22;32137;48.728;9.142;2023-03-31T07:30:09;9.90;99.90
46438;DHT22;32137;48.728;9.142;2023-03-31T07:32:36;9.90;99.90
46438;DHT22;32137;48.728;9.142;2023-03-31T07:35:09;9.70;99.90
46438;DHT22;32137;48.728;9.142;2023-03-31T07:37:35;9.40;99.90
46438;DHT22;32137;48.728;9.142;2023-03-31T07:40:00;9.50;99.90
46438;DHT22;32137;48.728;9.142;2023-03-31T07:42:26;9.40;99.90
46438;DHT22;32137;48.728;9.142;2023-03-31T07:44:51;9.60;99.90
46438;DHT22;32137;48.728;9.142;2023-03-31T07:47:17;9.60;99.90
46438;DHT22;32137;48.728;9.142;2023-03-31T07:49:42;9.70;99.90
46438;DHT22;32137;48.728;9.142;2023-03-31T07:52:08;9.70;99.90
46438;DHT22;32137;48.728;9.142;2023-03-31T07:54:33;9.70;99.90
46438;DHT22;32137;48.728;9.142;2023-03-31T07:56:59;9.00;99.90
46438;DHT22;32137;48.728;9.142;2023-03-31T07:59:26;9.10;99.90
46438;DHT22;32137;48.728;9.142;2023-03-31T08:01:52;9.00;99.90
46438;DHT22;32137;48.728;9.142;2023-03-31T08:04:17;8.90;99.90
46438;DHT22;32137;48.728;9.142;2023-03-31T08:06:43;9.40;99.90
46438;DHT22;32137;48.728;9.142;2023-03-31T08:09:08;9.40;99.90
46438;DHT22;32137;48.728;9.142;2023-03-31T08:11:34;9.00;99.90
46438;DHT22;32137;48.728;9.142;2023-03-31T08:13:59;8.90;99.90
46438;DHT22;32137;48.728;9.142;2023-03-31T08:16:25;9.40;99.90
46438;DHT22;32137;48.728;9.142;2023-03-31T08:18:50;9.50;99.90
46438;DHT22;32137;48.728;9.142;2023-03-31T08:21:16;9.50;99.90
46438;DHT22;32137;48.728;9.142;2023-03-31T08:23:41;9.20;99.90
46438;DHT22;32137;48.728;9.142;2023-03-31T08:26:08;9.20;99.90
46438;DHT22;32137;48.728;9.142;2023-03-31T08:28:33;9.10;99.90
46438;DHT22;32137;48.728;9.142;2023-03-31T08:31:03;9.20;99.90
46438;DHT22;32137;48.728;9.142;2023-03-31T08:33:29;9.90;99.90
46438;DHT22;32137;48.728;9.142;2023-03-31T08:35:55;9.90;99.90
46438;DHT22;32137;48.728;9.142;2023-03-31T08:38:20;9.60;99.90
46438;DHT22;32137;48.728;9.142;2023-03-31T08:40:46;10.00;99.90
46438;DHT22;32137;48.728;9.142;2023-03-31T08:43:13;9.30;99.90
46438;DHT22;32137;48.728;9.142;2023-03-31T08:45:41;9.80;99.90
46438;DHT22;32137;48.728;9.142;2023-03-31T08:48:12;9.80;99.90
46438;DHT22;32137;48.728;9.142;2023-03-31T08:50:41;10.10;99.90
46438;DHT22;32137;48.728;9.142;2023-03-31T08:53:28;9.40;99.90
46438;DHT22;32137;48.728;9.142;2023-03-31T08:55:54;10.30;99.90
46438;DHT22;32137;48.728;9.142;2023-03-31T09:06:24;10.60;99.90
46438;DHT22;32137;48.728;9.142;2023-03-31T09:08:51;10.10;99.90
46438;DHT22;32137;48.728;9.142;2023-03-31T09:13:53;10.20;99.90
46438;DHT22;32137;48.728;9.142;2023-03-31T09:19:02;10.10;99.90
46438;DHT22;32137;48.728;9.142;2023-03-31T09:21:30;9.90;99.90
46438;DHT22;32137;48.728;9.142;2023-03-31T09:26:36;10.10;99.90
46438;DHT22;32137;48.728;9.142;2023-03-31T09:29:03;10.60;99.90
46438;DHT22;32137;48.728;9.142;2023-03-31T09:31:31;9.90;99.90
46438;DHT22;32137;48.728;9.142;2023-03-31T09:33:58;10.60;99.90
46438;DHT22;32137;48.728;9.142;2023-03-31T09:36:25;9.80;99.90
46438;DHT22;32137;48.728;9.142;2023-03-31T09:38:51;10.00;99.90
46438;DHT22;32137;48.728;9.142;2023-03-31T09:41:16;10.30;99.90
46438;DHT22;32137;48.728;9.142;2023-03-31T09:43:43;10.60;99.90
46438;DHT22;32137;48.728;9.142;2023-03-31T09:48:45;10.10;99.90
46438;DHT22;32137;48.728;9.142;2023-03-31T09:51:17;10.30;99.90
46438;DHT22;32137;48.728;9.142;2023-03-31T09:53:49;11.10;99.90
46438;DHT22;32137;48.728;9.142;2023-03-31T09:56:30;10.50;99.90
46438;DHT22;32137;48.728;9.142;2023-03-31T09:58:56;11.20;99.90
46438;DHT22;32137;48.728;9.142;2023-03-31T10:01:25;10.70;99.90
46438;DHT22;32137;48.728;9.142;2023-03-31T10:03:52;11.40;99.90
46438;DHT22;32137;48.728;9.142;2023-03-31T10:06:18;11.10;99.90
46438;DHT22;32137;48.728;9.142;2023-03-31T10:08:48;11.20;99.90
46438;DHT22;32137;48.728;9.142;2023-03-31T10:11:15;10.40;99.90
46438;DHT22;32137;48.728;9.142;2023-03-31T10:16:32;10.70;99.90
46438;DHT22;32137;48.728;9.142;2023-03-31T10:19:12;11.00;99.90
46438;DHT22;32137;48.728;9.142;2023-03-31T10:21:41;11.20;99.90
46438;DHT22;32137;48.728;9.142;2023-03-31T10:24:10;11.20;99.90
46438;DHT22;32137;48.728;9.142;2023-03-31T10:26:36;11.40;99.90
46438;DHT22;32137;48.728;9.142;2023-03-31T10:29:09;11.30;99.90
46438;DHT22;32137;48.728;9.142;2023-03-31T10:31:36;11.60;99.90
46438;DHT22;32137;48.728;9.142;2023-03-31T10:34:06;11.80;99.90
46438;DHT22;32137;48.728;9.142;2023-03-31T10:36:33;11.50;99.90
46438;DHT22;32137;48.728;9.142;2023-03-31T10:39:05;11.70;99.90
46438;DHT22;32137;48.728;9.142;2023-03-31T10:41:31;11.70;99.90
46438;DHT22;32137;48.728;9.142;2023-03-31T10:43:59;11.70;99.90
46438;DHT22;32137;48.728;9.142;2023-03-31T10:46:46;12.10;99.90
46438;DHT22;32137;48.728;9.142;2023-03-31T10:49:24;12.00;99.90
46438;DHT22;32137;48.728;9.142;2023-03-31T10:51:58;12.20;99.90
46438;DHT22;32137;48.728;9.142;2023-03-31T10:54:24;12.50;99.90
46438;DHT22;32137;48.728;9.142;2023-03-31T10:56:51;12.80;99.90
46438;DHT22;32137;48.728;9.142;2023-03-31T10:59:27;12.90;99.90
46438;DHT22;32137;48.728;9.142;2023-03-31T11:07:41;12.70;99.90
46438;DHT22;32137;48.728;9.142;2023-03-31T11:10:33;12.60;99.90
46438;DHT22;32137;48.728;9.142;2023-03-31T11:13:21;12.60;99.90
46438;DHT22;32137;48.728;9.142;2023-03-31T11:21:11;11.60;99.90
46438;DHT22;32137;48.728;9.142;2023-03-31T11:23:43;11.70;99.90
46438;DHT22;32137;48.728;9.142;2023-03-31T11:26:27;10.30;99.90
46438;DHT22;32137;48.728;9.142;2023-03-31T11:41:59;9.70;99.90
46438;DHT22;32137;48.728;9.142;2023-03-31T11:44:26;9.30;99.90
46438;DHT22;32137;48.728;9.142;2023-03-31T11:46:56;9.50;99.90
46438;DHT22;32137;48.728;9.142;2023-03-31T11:49:28;9.40;99.90
46438;DHT22;32137;48.728;9.142;2023-03-31T11:52:02;9.50;99.90
46438;DHT22;32137;48.728;9.142;2023-03-31T11:54:36;9.90;99.90
46438;DHT22;32137;48.728;9.142;2023-03-31T11:57:08;9.50;99.90
46438;DHT22;32137;48.728;9.142;2023-03-31T11:59:34;10.30;99.90
46438;DHT22;32137;48.728;9.142;2023-03-31T12:02:17;11.20;99.90
46438;DHT22;32137;48.728;9.142;2023-03-31T12:04:53;13.50;99.90
46438;DHT22;32137;48.728;9.142;2023-03-31T12:07:27;15.30;99.90
46438;DHT22;32137;48.728;9.142;2023-03-31T12:12:31;17.80;99.90
46438;DHT22;32137;48.728;9.142;2023-03-31T12:15:16;17.90;99.90
46438;DHT22;32137;48.728;9.142;2023-03-31T12:17:48;15.80;99.90
46438;DHT22;32137;48.728;9.142;2023-03-31T12:20:33;14.70;99.90
46438;DHT22;32137;48.728;9.142;2023-03-31T12:23:03;14.50;99.90
46438;DHT22;32137;48.728;9.142;2023-03-31T12:25:47;14.00;99.90
46438;DHT22;32137;48.728;9.142;2023-03-31T12:28:16;15.90;99.90
46438;DHT22;32137;48.728;9.142;2023-03-31T12:30:43;17.30;99.90
46438;DHT22;32137;48.728;9.142;2023-03-31T12:35:54;19.20;99.90
46438;DHT22;32137;48.728;9.142;2023-03-31T12:38:41;19.70;99.90
46438;DHT22;32137;48.728;9.142;2023-03-31T12:41:30;19.70;99.90
46438;DHT22;32137;48.728;9.142;2023-03-31T12:50:15;22.00;99.90
46438;DHT22;32137;48.728;9.142;2023-03-31T12:53:11;20.80;99.90
46438;DHT22;32137;48.728;9.142;2023-03-31T12:55:47;21.60;99.90
46438;DHT22;32137;48.728;9.142;2023-03-31T13:14:12;15.60;99.90
46438;DHT22;32137;48.728;9.142;2023-03-31T13:16:39;15.10;99.90
46438;DHT22;32137;48.728;9.142;2023-03-31T13:19:05;15.30;99.90
46438;DHT22;32137;48.728;9.142;2023-03-31T13:21:30;14.60;99.90
46438;DHT22;32137;48.728;9.142;2023-03-31T13:24:00;14.10;99.90
46438;DHT22;32137;48.728;9.142;2023-03-31T13:32:04;13.40;99.90
46438;DHT22;32137;48.728;9.142;2023-03-31T13:34:34;13.10;99.90
46438;DHT22;32137;48.728;9.142;2023-03-31T13:45:18;11.60;99.90
46438;DHT22;32137;48.728;9.142;2023-03-31T14:07:20;10.20;99.90
46438;DHT22;32137;48.728;9.142;2023-03-31T14:09:52;10.90;99.90
46438;DHT22;32137;48.728;9.142;2023-03-31T14:14:59;12.10;99.90
46438;DHT22;32137;48.728;9.142;2023-03-31T14:17:26;12.10;99.90
46438;DHT22;32137;48.728;9.142;2023-03-31T14:36:05;11.60;99.90
46438;DHT22;32137;48.728;9.142;2023-03-31T14:38:33;12.40;99.90
46438;DHT22;32137;48.728;9.142;2023-03-31T14:40:59;12.70;99.90
46438;DHT22;32137;48.728;9.142;2023-03-31T14:43:31;12.50;99.90
46438;DHT22;32137;48.728;9.142;2023-03-31T14:46:05;12.30;99.90
46438;DHT22;32137;48.728;9.142;2023-03-31T14:48:40;12.80;99.90
46438;DHT22;32137;48.728;9.142;2023-03-31T14:51:10;12.50;99.90
46438;DHT22;32137;48.728;9.142;2023-03-31T14:53:36;13.00;99.90
46438;DHT22;32137;48.728;9.142;2023-03-31T14:56:06;13.20;99.90
46438;DHT22;32137;48.728;9.142;2023-03-31T14:58:35;13.30;99.90
46438;DHT22;32137;48.728;9.142;2023-03-31T15:01:04;13.30;99.90
46438;DHT22;32137;48.728;9.142;2023-03-31T15:03:32;13.30;99.90
46438;DHT22;32137;48.728;9.142;2023-03-31T15:06:00;13.10;99.90
46438;DHT22;32137;48.728;9.142;2023-03-31T15:08:27;13.10;99.90
46438;DHT22;32137;48.728;9.142;2023-03-31T15:10:59;12.70;99.90
46438;DHT22;32137;48.728;9.142;2023-03-31T15:15:51;12.70;99.90
46438;DHT22;32137;48.728;9.142;2023-03-31T15:18:16;12.60;99.90
46438;DHT22;32137;48.728;9.142;2023-03-31T15:20:43;12.50;99.90
46438;DHT22;32137;48.728;9.142;2023-03-31T15:23:27;12.50;99.90
46438;DHT22;32137;48.728;9.142;2023-03-31T15:26:07;12.80;99.90
46438;DHT22;32137;48.728;9.142;2023-03-31T15:28:41;12.80;99.90
46438;DHT22;32137;48.728;9.142;2023-03-31T15:31:08;12.60;99.90
46438;DHT22;32137;48.728;9.142;2023-03-31T15:33:35;12.70;99.90
46438;DHT22;32137;48.728;9.142;2023-03-31T15:36:10;12.70;99.90
46438;DHT22;32137;48.728;9.142;2023-03-31T15:38:36;12.90;99.90
46438;DHT22;32137;48.728;9.142;2023-03-31T15:41:02;12.80;99.90
46438;DHT22;32137;48.728;9.142;2023-03-31T15:43:48;12.10;99.90
46438;DHT22;32137;48.728;9.142;2023-03-31T15:46:48;12.70;99.90
46438;DHT22;32137;48.728;9.142;2023-03-31T15:49:22;12.20;99.90
46438;DHT22;32137;48.728;9.142;2023-03-31T15:51:49;12.50;99.90
46438;DHT22;32137;48.728;9.142;2023-03-31T15:56:59;12.10;99.90
46438;DHT22;32137;48.728;9.142;2023-03-31T15:59:28;12.40;99.90
46438;DHT22;32137;48.728;9.142;2023-03-31T16:01:55;12.30;99.90
46438;DHT22;32137;48.728;9.142;2023-03-31T16:04:22;12.30;99.90
46438;DHT22;32137;48.728;9.142;2023-03-31T16:06:56;11.90;99.90
46438;DHT22;32137;48.728;9.142;2023-03-31T16:09:41;12.40;99.90
46438;DHT22;32137;48.728;9.142;2023-03-31T16:12:23;12.10;99.90
46438;DHT22;32137;48.728;9.142;2023-03-31T16:17:26;11.90;99.90
46438;DHT22;32137;48.728;9.142;2023-03-31T16:20:00;11.80;99.90
46438;DHT22;32137;48.728;9.142;2023-03-31T16:22:39;11.70;99.90
46438;DHT22;32137;48.728;9.142;2023-03-31T16:25:11;11.60;99.90
46438;DHT22;32137;48.728;9.142;2023-03-31T16:27:46;11.80;99.90
46438;DHT22;32137;48.728;9.142;2023-03-31T16:30:18;11.50;99.90
46438;DHT22;32137;48.728;9.142;2023-03-31T16:33:01;11.40;99.90
46438;DHT22;32137;48.728;9.142;2023-03-31T16:35:33;10.90;99.90
46438;DHT22;32137;48.728;9.142;2023-03-31T16:37:59;11.00;99.90
46438;DHT22;32137;48.728;9.142;2023-03-31T16:40:27;10.90;99.90
46438;DHT22;32137;48.728;9.142;2023-03-31T16:43:15;11.40;99.90
46438;DHT22;32137;48.728;9.142;2023-03-31T16:45:53;11.30;99.90
46438;DHT22;32137;48.728;9.142;2023-03-31T16:48:22;10.60;99.90
46438;DHT22;32137;48.728;9.142;2023-03-31T16:50:50;11.00;99.90
46438;DHT22;32137;48.728;9.142;2023-03-31T16:53:22;10.80;99.90
46438;DHT22;32137;48.728;9.142;2023-03-31T16:55:49;10.40;99.90
46438;DHT22;32137;48.728;9.142;2023-03-31T16:58:15;10.90;99.90
46438;DHT22;32137;48.728;9.142;2023-03-31T17:00:41;10.90;99.90
46438;DHT22;32137;48.728;9.142;2023-03-31T17:03:08;10.50;99.90
46438;DHT22;32137;48.728;9.142;2023-03-31T17:05:42;10.90;99.90
46438;DHT22;32137;48.728;9.142;2023-03-31T17:08:09;10.50;99.90
46438;DHT22;32137;48.728;9.142;2023-03-31T17:10:35;10.90;99.90
46438;DHT22;32137;48.728;9.142;2023-03-31T17:13:01;10.80;99.90
46438;DHT22;32137;48.728;9.142;2023-03-31T17:15:26;10.80;99.90
46438;DHT22;32137;48.728;9.142;2023-03-31T17:17:54;10.40;99.90
46438;DHT22;32137;48.728;9.142;2023-03-31T17:20:21;10.90;99.90
46438;DHT22;32137;48.728;9.142;2023-03-31T17:22:47;10.70;99.90
46438;DHT22;32137;48.728;9.142;2023-03-31T17:25:12;10.50;99.90
46438;DHT22;32137;48.728;9.142;2023-03-31T17:27:38;10.80;99.90
46438;DHT22;32137;48.728;9.142;2023-03-31T17:30:04;10.40;99.90
46438;DHT22;32137;48.728;9.142;2023-03-31T17:32:30;10.90;99.90
46438;DHT22;32137;48.728;9.142;2023-03-31T17:34:55;10.30;99.90
46438;DHT22;32137;48.728;9.142;2023-03-31T17:37:21;10.80;99.90
46438;DHT22;32137;48.728;9.142;2023-03-31T17:39:47;10.70;99.90
46438;DHT22;32137;48.728;9.142;2023-03-31T17:42:12;10.20;99.90
46438;DHT22;32137;48.728;9.142;2023-03-31T17:44:38;10.20;99.90
46438;DHT22;32137;48.728;9.142;2023-03-31T17:47:04;10.50;99.90
46438;DHT22;32137;48.728;9.142;2023-03-31T17:49:29;10.30;99.90
46438;DHT22;32137;48.728;9.142;2023-03-31T17:51:56;10.60;99.90
46438;DHT22;32137;48.728;9.142;2023-03-31T17:54:22;10.20;99.90
46438;DHT22;32137;48.728;9.142;2023-03-31T17:56:47;10.80;99.90
46438;DHT22;32137;48.728;9.142;2023-03-31T17:59:16;10.20;99.90
46438;DHT22;32137;48.728;9.142;2023-03-31T18:01:42;10.50;99.90
46438;DHT22;32137;48.728;9.142;2023-03-31T18:04:08;10.30;99.90
46438;DHT22;32137;48.728;9.142;2023-03-31T18:06:33;10.60;99.90
46438;DHT22;32137;48.728;9.142;2023-03-31T18:08:59;10.20;99.90
46438;DHT22;32137;48.728;9.142;2023-03-31T18:11:25;10.50;99.90
46438;DHT22;32137;48.728;9.142;2023-03-31T18:13:51;10.30;99.90
46438;DHT22;32137;48.728;9.142;2023-03-31T18:16:17;10.10;99.90
46438;DHT22;32137;48.728;9.142;2023-03-31T18:18:42;10.10;99.90
46438;DHT22;32137;48.728;9.142;2023-03-31T18:21:09;10.40;99.90
46438;DHT22;32137;48.728;9.142;2023-03-31T18:23:35;10.10;99.90
46438;DHT22;32137;48.728;9.142;2023-03-31T18:26:04;10.10;99.90
46438;DHT22;32137;48.728;9.142;2023-03-31T18:28:30;10.00;99.90
46438;DHT22;32137;48.728;9.142;2023-03-31T18:30:55;10.00;99.90
46438;DHT22;32137;48.728;9.142;2023-03-31T18:33:21;10.20;99.90
46438;DHT22;32137;48.728;9.142;2023-03-31T18:35:46;9.90;99.90
46438;DHT22;32137;48.728;9.142;2023-03-31T18:38:12;10.20;99.90
46438;DHT22;32137;48.728;9.142;2023-03-31T18:40:38;10.00;99.90
46438;DHT22;32137;48.728;9.142;2023-03-31T18:43:03;10.00;99.90